Lake Worth, FL (33460)

9:23 PM EDT on August 01, 2015 (GMT -0400)
Lake Clarke Shores - Caribbean Rd. East | | Change Station
CLOSE
Current Station
Personal Weather Station
Location: Lake Clarke Shores, FL
Elevation: 16 ft
Nearby Weather Stations

Elev 16 ft 26.63 °N, 80.07 °W | Updated 22 seconds ago

Overcast
Overcast
77.5 °F
Feels Like 79 °F
N
1.3
Wind Variable Wind from SE
Gusts 2.5 mph

Today
High -- | Low -- °F
--% Chance of Precip.
Yesterday
High -- | Low -- °F
Precip. -- in
6:45 AM 8:07 PM
Waning Gibbous, 96% visible
Pressure 29.97 in
Visibility 10.0 miles
Clouds Mostly Cloudy 14000 ft
Overcast 20000 ft
Heat Index 79 °F
Dew Point 72 °F
Humidity 84%
Rainfall 0.04 in
Snow Depth Not available.
UV 0 out of 12
Pollen 2.70 out of 12
Air Quality Not available.
Flu Activity Not available.
METAR KPBI 020053Z 33003KT 10SM BKN140 OVC200 24/20 A2997 RMK AO2 TSE26 SLP148 CB DSNT NE-SE T02390200

More Conditions Fewer Conditions

Pressure 29.97 in
Visibility 10.0 miles
Clouds Mostly Cloudy 14000 ft
Overcast 20000 ft
Heat Index 79 °F
Dew Point 72 °F
Humidity 84%
Rainfall 0.04 in
Snow Depth Not available.
UV 0 out of 12
Pollen 2.70 out of 12
Air Quality Not available.
Flu Activity Not available.
METAR KPBI 020053Z 33003KT 10SM BKN140 OVC200 24/20 A2997 RMK AO2 TSE26 SLP148 CB DSNT NE-SE T02390200

More Conditions Fewer Conditions

Nowcast | as of 9:20 PM EDT on August 1, 2015

Scattered showers and thunderstorms over the Atlantic will move north to northwest at 10 to 15 mph. Some of these showers and thunderstorms may approach Biscayne Bay and the Southeast Florida coast late this evening. In the meantime, only sporadic, light rain is expected across Southeast Florida this evening.

×

10-Day Weather Forecast

×

Almanac

Astronomy

Aug. 01, 2015 Rise Set
Actual Time
Civil Twilight
Nautical Twilight
Astronomical Twilight
Moon
Length of Visible Light
Length of Day
Tomorrow will be .
, % of the Moon is Illuminated

Today's Extremes

State Highs State Lows

Community

WunderPhotos

Upload Photos

1,843,127 photos uploaded!

WunderBlogs® & News

Nearby

Air Quality

  Air Quality AQ Index Pollutant
Not available.

Snow Depth

Station Depth Elevation

Earthquake Activity

City Distance Mag. Time & Date
Minimum magnitude displayed is 2.5.

Coastal Water Temperatures

Place Temperature

Stations

Nearby Weather Stations

Station Location Temp. Windchill Dew Point Humidity Wind Precip. Elev Updated Type